Time;durP1;ratioP1;P1;durP2;ratioP2;P2;SDS_P1;SDS_P2;PMS_P1;PMS_P2;Temp;Humidity;BMP_temperature;BMP_pressure;BME280_temperature;BME280_humidity;BME280_pressure;Samples;Min_cycle;Max_cycle;Signal;HPM_P1;HPM_P2
2023/12/21 00:01:36;;;;;;;9.55;1.67;;;10.70;99.90;;;;;;5034389;28;20042;-43
2023/12/21 00:04:03;;;;;;;9.88;1.65;;;10.70;99.90;;;;;;5034523;28;20520;-40
2023/12/21 00:06:29;;;;;;;14.55;3.58;;;10.70;99.90;;;;;;5022735;28;20505;-42
2023/12/21 00:08:55;;;;;;;11.95;1.33;;;10.60;99.90;;;;;;5014574;28;20552;-43
2023/12/21 00:11:21;;;;;;;3.95;1.73;;;10.70;99.90;;;;;;5033696;28;20029;-41
2023/12/21 00:13:47;;;;;;;8.50;1.50;;;10.70;99.90;;;;;;5034021;28;20424;-41
2023/12/21 00:16:13;;;;;;;4.22;1.10;;;10.80;99.90;;;;;;5034197;28;20013;-42
2023/12/21 00:18:39;;;;;;;8.95;1.60;;;10.80;99.90;;;;;;5065926;28;20021;-45
2023/12/21 00:21:05;;;;;;;10.30;1.15;;;10.80;99.90;;;;;;5033876;28;20028;-41
2023/12/21 00:23:30;;;;;;;12.45;2.30;;;10.70;99.90;;;;;;5034009;28;20474;-43
2023/12/21 00:25:56;;;;;;;8.88;1.17;;;10.70;99.90;;;;;;5033880;28;20459;-39
2023/12/21 00:28:22;;;;;;;2.95;1.00;;;10.70;99.90;;;;;;5033996;28;20092;-40
2023/12/21 00:30:48;;;;;;;4.10;1.40;;;10.80;99.90;;;;;;5033741;28;20026;-41
2023/12/21 00:33:13;;;;;;;10.15;1.30;;;10.80;99.90;;;;;;5033876;28;20029;-40
2023/12/21 00:35:39;;;;;;;8.55;1.27;;;10.90;99.90;;;;;;5032376;28;20486;-38
2023/12/21 00:38:05;;;;;;;4.32;0.75;;;10.90;99.90;;;;;;5033696;28;20017;-39
2023/12/21 00:40:30;;;;;;;3.80;0.93;;;10.90;99.90;;;;;;5041595;28;20017;-46
2023/12/21 00:42:57;;;;;;;6.60;1.13;;;10.90;99.90;;;;;;5041452;28;20032;-44
2023/12/21 00:45:23;;;;;;;7.07;1.70;;;10.90;99.90;;;;;;5033954;28;20462;-37
2023/12/21 00:47:48;;;;;;;5.80;1.23;;;10.90;99.90;;;;;;5033620;28;20031;-41
2023/12/21 00:50:15;;;;;;;3.95;1.20;;;10.80;99.90;;;;;;5033251;28;20548;-42
2023/12/21 00:52:41;;;;;;;7.63;1.33;;;10.80;99.90;;;;;;5032836;28;20032;-38
2023/12/21 00:55:07;;;;;;;8.95;1.55;;;10.80;99.90;;;;;;5033025;28;20505;-39
2023/12/21 00:57:33;;;;;;;22.80;2.53;;;10.80;99.90;;;;;;5032288;28;20108;-39
2023/12/21 00:59:58;;;;;;;15.63;1.92;;;10.80;99.90;;;;;;5032427;28;20481;-39
2023/12/21 01:02:24;;;;;;;5.93;1.08;;;10.90;99.90;;;;;;5033011;28;20356;-41
2023/12/21 01:04:50;;;;;;;12.27;2.20;;;10.80;99.90;;;;;;5033566;28;20021;-40
2023/12/21 01:07:15;;;;;;;8.00;1.23;;;10.90;99.90;;;;;;5033103;28;20027;-42
2023/12/21 01:09:41;;;;;;;2.75;1.25;;;10.90;99.90;;;;;;5032031;28;20043;-50
2023/12/21 01:12:07;;;;;;;4.07;1.45;;;10.80;99.90;;;;;;5032617;28;20192;-39
2023/12/21 01:14:33;;;;;;;4.57;0.88;;;10.80;99.90;;;;;;5033183;28;20040;-39
2023/12/21 01:16:59;;;;;;;9.60;1.58;;;10.80;99.90;;;;;;5031234;28;20021;-40
2023/12/21 01:19:26;;;;;;;4.20;1.42;;;10.80;99.90;;;;;;5032704;28;20026;-41
2023/12/21 01:21:51;;;;;;;3.85;0.85;;;10.80;99.90;;;;;;5031548;28;20075;-38
2023/12/21 01:24:17;;;;;;;0.70;0.70;;;10.80;99.90;;;;;;5032795;28;20017;-39
2023/12/21 01:26:43;;;;;;;11.40;1.90;;;10.90;99.90;;;;;;5032292;28;20035;-42
2023/12/21 01:29:08;;;;;;;8.35;1.67;;;10.80;99.90;;;;;;5031369;28;20029;-42
2023/12/21 01:31:34;;;;;;;11.40;1.83;;;10.80;99.90;;;;;;5032234;28;20021;-43
2023/12/21 01:34:01;;;;;;;8.20;1.70;;;10.80;99.90;;;;;;5032398;28;20481;-41
2023/12/21 01:36:27;;;;;;;6.10;1.17;;;10.90;99.90;;;;;;5029203;28;20025;-41
2023/12/21 01:38:53;;;;;;;6.57;1.67;;;10.90;99.90;;;;;;5030884;28;20022;-37
2023/12/21 01:41:19;;;;;;;3.83;0.90;;;10.90;99.90;;;;;;5031484;28;20049;-39
2023/12/21 01:43:44;;;;;;;13.50;1.85;;;10.90;99.90;;;;;;5031800;28;20117;-39
2023/12/21 01:46:10;;;;;;;5.70;1.38;;;10.80;99.90;;;;;;5031977;28;20493;-63
2023/12/21 01:48:36;;;;;;;7.68;1.48;;;10.80;99.90;;;;;;5032704;28;20079;-39
2023/12/21 01:51:04;;;;;;;4.15;0.70;;;10.70;99.90;;;;;;5032442;28;20103;-39
2023/12/21 01:53:31;;;;;;;10.45;1.35;;;10.80;99.90;;;;;;5033786;28;20159;-41
2023/12/21 01:55:58;;;;;;;6.95;1.00;;;10.90;99.90;;;;;;5036746;28;20021;-40
2023/12/21 01:58:24;;;;;;;6.05;1.67;;;10.90;99.90;;;;;;5030064;28;20026;-39
2023/12/21 02:00:50;;;;;;;7.45;1.13;;;10.80;99.90;;;;;;5022822;28;20029;-42
2023/12/21 02:03:20;;;;;;;12.98;1.73;;;10.90;99.90;;;;;;5035770;28;20414;-56
2023/12/21 02:05:45;;;;;;;4.47;1.27;;;10.90;99.90;;;;;;5035168;28;20061;-48
2023/12/21 02:08:12;;;;;;;7.82;1.05;;;10.90;99.90;;;;;;5036353;28;20103;-40
2023/12/21 02:10:41;;;;;;;10.90;1.40;;;10.90;99.90;;;;;;5035893;28;20105;-42
2023/12/21 02:13:06;;;;;;;11.25;1.65;;;10.90;99.90;;;;;;5036170;28;20571;-43
2023/12/21 02:15:32;;;;;;;10.07;1.58;;;10.90;99.90;;;;;;5036486;28;20017;-43
2023/12/21 02:18:02;;;;;;;12.45;1.92;;;11.00;99.90;;;;;;5036179;28;20080;-46
2023/12/21 02:20:28;;;;;;;15.55;2.78;;;11.00;99.90;;;;;;5036414;28;20496;-39
2023/12/21 02:22:59;;;;;;;7.60;1.55;;;10.90;99.90;;;;;;5036190;28;20053;-40
2023/12/21 02:25:25;;;;;;;4.72;1.35;;;10.90;99.90;;;;;;5034833;28;20032;-43
2023/12/21 02:27:51;;;;;;;11.18;1.17;;;10.90;99.90;;;;;;5036280;28;20478;-41
2023/12/21 02:30:17;;;;;;;7.63;1.10;;;10.80;99.90;;;;;;5035980;28;20030;-40
2023/12/21 02:32:43;;;;;;;5.72;2.00;;;10.90;99.90;;;;;;5036021;28;20474;-41
2023/12/21 02:35:09;;;;;;;4.07;0.93;;;10.90;99.90;;;;;;5036101;28;20552;-62
2023/12/21 02:37:35;;;;;;;11.77;1.50;;;10.90;99.90;;;;;;5034513;28;20026;-40
2023/12/21 02:40:00;;;;;;;3.13;0.73;;;10.90;99.90;;;;;;5036059;28;20385;-42
2023/12/21 02:42:26;;;;;;;4.60;1.17;;;11.00;99.90;;;;;;5035801;28;20029;-41
2023/12/21 02:44:52;;;;;;;9.73;1.17;;;11.00;99.90;;;;;;5035565;28;20025;-40
2023/12/21 02:47:18;;;;;;;5.13;1.20;;;11.00;99.90;;;;;;5034749;28;20489;-40
2023/12/21 02:49:43;;;;;;;7.43;1.42;;;10.90;99.90;;;;;;5035411;28;20029;-44
2023/12/21 02:52:09;;;;;;;15.65;1.73;;;10.90;99.90;;;;;;5031401;28;20429;-41
2023/12/21 02:54:35;;;;;;;6.65;1.13;;;10.90;99.90;;;;;;5035412;28;20367;-40
2023/12/21 02:57:00;;;;;;;6.50;1.17;;;10.90;99.90;;;;;;5035702;28;20397;-41
2023/12/21 02:59:26;;;;;;;8.63;1.55;;;10.90;99.90;;;;;;5034907;28;20378;-43
2023/12/21 03:01:52;;;;;;;4.50;1.92;;;10.80;99.90;;;;;;5035395;28;20379;-64
2023/12/21 03:04:18;;;;;;;8.65;1.88;;;10.80;99.90;;;;;;5035120;28;20135;-41
2023/12/21 03:06:44;;;;;;;11.68;1.60;;;10.80;99.90;;;;;;5034008;28;20025;-40
2023/12/21 03:09:09;;;;;;;7.68;1.70;;;10.80;99.90;;;;;;5034603;28;20033;-43
2023/12/21 03:11:35;;;;;;;6.45;1.63;;;10.90;99.90;;;;;;5035253;28;20037;-41
2023/12/21 03:14:02;;;;;;;6.72;1.65;;;10.90;99.90;;;;;;5034836;28;20095;-45
2023/12/21 03:16:28;;;;;;;7.18;1.35;;;10.90;99.90;;;;;;5035240;28;20366;-50
2023/12/21 03:18:53;;;;;;;7.85;1.67;;;11.00;99.90;;;;;;5035302;28;20043;-41
2023/12/21 03:21:19;;;;;;;10.93;2.28;;;11.00;99.90;;;;;;5033486;28;20025;-39
2023/12/21 03:23:45;;;;;;;9.18;1.45;;;10.90;99.90;;;;;;5035043;28;20030;-41
2023/12/21 03:26:11;;;;;;;7.00;1.92;;;10.90;99.90;;;;;;5035160;28;20057;-40
2023/12/21 03:28:37;;;;;;;10.35;1.40;;;10.90;99.90;;;;;;5035175;28;20033;-40
2023/12/21 03:31:06;;;;;;;8.73;1.52;;;10.90;99.90;;;;;;5032517;28;20030;-55
2023/12/21 03:33:32;;;;;;;5.13;1.33;;;11.00;99.90;;;;;;5035197;28;20430;-53
2023/12/21 03:35:57;;;;;;;6.95;2.08;;;11.00;99.90;;;;;;5034630;28;20080;-53
2023/12/21 03:38:23;;;;;;;5.03;1.38;;;11.00;99.90;;;;;;5033957;28;20381;-53
2023/12/21 03:40:49;;;;;;;7.82;1.38;;;11.00;99.90;;;;;;5034718;28;20569;-54
2023/12/21 03:43:15;;;;;;;12.32;2.08;;;10.90;99.90;;;;;;5034889;28;20474;-52
2023/12/21 03:45:40;;;;;;;11.88;2.92;;;10.90;99.90;;;;;;5033788;28;20029;-54
2023/12/21 03:48:10;;;;;;;15.73;1.83;;;10.90;99.90;;;;;;5033438;28;20075;-53
2023/12/21 03:50:36;;;;;;;8.63;1.70;;;10.90;99.90;;;;;;5034422;28;20037;-53
2023/12/21 03:53:03;;;;;;;9.65;2.08;;;10.80;99.90;;;;;;5033961;28;20038;-67
2023/12/21 03:55:29;;;;;;;9.65;1.63;;;10.80;99.90;;;;;;5034537;28;20026;-53
2023/12/21 03:57:56;;;;;;;6.78;1.73;;;10.90;99.90;;;;;;5034565;28;20031;-73
2023/12/21 04:00:22;;;;;;;10.03;2.10;;;10.90;99.90;;;;;;5033881;28;20034;-53
2023/12/21 04:02:48;;;;;;;6.45;1.35;;;10.90;99.90;;;;;;5034052;28;20071;-52
2023/12/21 04:05:13;;;;;;;6.40;1.55;;;10.90;99.90;;;;;;5033802;28;20022;-44
2023/12/21 04:07:39;;;;;;;11.88;2.58;;;10.80;99.90;;;;;;5034262;28;20478;-43
2023/12/21 04:10:05;;;;;;;8.25;1.30;;;10.90;99.90;;;;;;5034118;28;20401;-39
2023/12/21 04:12:31;;;;;;;6.93;1.75;;;10.90;99.90;;;;;;5031963;28;20045;-41
2023/12/21 04:14:56;;;;;;;9.13;1.58;;;10.90;99.90;;;;;;5034421;28;20029;-40
2023/12/21 04:17:22;;;;;;;19.70;1.65;;;10.80;99.90;;;;;;5033397;28;20025;-40
2023/12/21 04:19:48;;;;;;;5.45;1.20;;;10.90;99.90;;;;;;5034201;28;20026;-40
2023/12/21 04:22:13;;;;;;;9.88;1.38;;;10.90;99.90;;;;;;5031285;28;20023;-39
2023/12/21 04:24:40;;;;;;;9.30;1.70;;;10.90;99.90;;;;;;5032925;28;20394;-39
2023/12/21 04:27:06;;;;;;;8.00;1.52;;;10.90;99.90;;;;;;5033980;28;20501;-43
2023/12/21 04:29:32;;;;;;;7.35;1.50;;;11.00;99.90;;;;;;5034016;28;20026;-40
2023/12/21 04:31:57;;;;;;;20.60;2.45;;;10.90;99.90;;;;;;5032805;28;20064;-42
2023/12/21 04:34:23;;;;;;;14.70;1.77;;;10.90;99.90;;;;;;5033441;28;20067;-41
2023/12/21 04:36:49;;;;;;;5.00;1.35;;;11.00;99.90;;;;;;5033841;28;20030;-44
2023/12/21 04:39:14;;;;;;;5.03;1.00;;;11.00;99.90;;;;;;5033188;28;20025;-39
2023/12/21 04:41:40;;;;;;;7.45;1.00;;;11.00;99.90;;;;;;5033523;28;20025;-43
2023/12/21 04:44:06;;;;;;;3.67;0.95;;;11.00;99.90;;;;;;5033699;28;20036;-41
2023/12/21 04:46:32;;;;;;;3.17;1.08;;;11.00;99.90;;;;;;5032032;28;20025;-41
2023/12/21 04:48:58;;;;;;;19.75;3.05;;;11.00;99.90;;;;;;5032139;28;20486;-41
2023/12/21 04:51:23;;;;;;;9.07;1.65;;;11.00;99.90;;;;;;5033276;28;20030;-61
2023/12/21 04:53:49;;;;;;;7.60;1.08;;;11.00;99.90;;;;;;5033262;28;20041;-43
2023/12/21 04:56:15;;;;;;;8.45;1.00;;;10.90;99.90;;;;;;5033506;28;20029;-39
2023/12/21 04:58:42;;;;;;;9.85;0.90;;;10.90;99.90;;;;;;5033207;28;20029;-42
2023/12/21 05:01:08;;;;;;;3.85;0.85;;;10.90;99.90;;;;;;5032692;28;20374;-44
2023/12/21 05:03:34;;;;;;;4.72;1.02;;;10.90;99.90;;;;;;5032531;28;20044;-43
2023/12/21 05:06:00;;;;;;;9.20;0.93;;;10.90;99.90;;;;;;5032836;28;20542;-40
2023/12/21 05:08:26;;;;;;;10.48;1.30;;;10.90;99.90;;;;;;5033018;28;20033;-41
2023/12/21 05:10:52;;;;;;;3.28;0.70;;;11.00;99.90;;;;;;5032894;28;20500;-41
2023/12/21 05:13:18;;;;;;;8.88;1.20;;;11.00;99.90;;;;;;5032739;28;20049;-43
2023/12/21 05:15:44;;;;;;;9.43;0.93;;;11.00;99.90;;;;;;5032469;28;20494;-42
2023/12/21 05:18:10;;;;;;;6.28;1.17;;;11.00;99.90;;;;;;5033162;28;20022;-55
2023/12/21 05:20:35;;;;;;;7.28;1.92;;;10.90;99.90;;;;;;5030336;28;20141;-56
2023/12/21 05:23:01;;;;;;;3.65;0.63;;;10.80;99.90;;;;;;5021727;28;20022;-53
2023/12/21 05:25:27;;;;;;;4.25;1.02;;;10.80;99.90;;;;;;5032764;28;20017;-51
2023/12/21 05:27:53;;;;;;;4.22;1.55;;;10.80;99.90;;;;;;5030601;28;20026;-54
2023/12/21 05:30:19;;;;;;;5.80;0.90;;;10.70;99.90;;;;;;5032260;28;20501;-54
2023/12/21 05:32:46;;;;;;;9.77;1.55;;;10.80;99.90;;;;;;5032960;28;20109;-56
2023/12/21 05:35:12;;;;;;;5.35;1.50;;;10.80;99.90;;;;;;5032821;28;20478;-56
2023/12/21 05:37:38;;;;;;;6.53;0.98;;;10.80;99.90;;;;;;5032653;28;20479;-52
2023/12/21 05:40:06;;;;;;;9.40;1.08;;;10.80;99.90;;;;;;5031114;28;20132;-55
2023/12/21 05:42:31;;;;;;;13.90;1.73;;;10.80;99.90;;;;;;5013068;28;20466;-55
2023/12/21 05:44:57;;;;;;;7.05;1.17;;;10.90;99.90;;;;;;5013046;28;20119;-53
2023/12/21 05:47:23;;;;;;;3.83;0.95;;;10.90;99.90;;;;;;5031647;28;20478;-55
2023/12/21 05:49:48;;;;;;;5.15;1.25;;;10.80;99.90;;;;;;5031462;28;20032;-40
2023/12/21 05:52:14;;;;;;;2.15;0.93;;;10.80;99.90;;;;;;5032715;28;20057;-40
2023/12/21 05:54:40;;;;;;;3.67;0.77;;;10.80;99.90;;;;;;5032331;28;20104;-42
2023/12/21 05:57:05;;;;;;;7.07;0.82;;;10.80;99.90;;;;;;5030931;28;20120;-40
2023/12/21 05:59:31;;;;;;;8.57;1.63;;;10.80;99.90;;;;;;5032616;28;20022;-44
2023/12/21 06:01:58;;;;;;;11.77;2.45;;;10.80;99.90;;;;;;5032076;28;20041;-41
2023/12/21 06:04:23;;;;;;;10.13;1.88;;;10.80;99.90;;;;;;5032633;28;20495;-42
2023/12/21 06:06:49;;;;;;;2.50;1.20;;;10.80;99.90;;;;;;5031995;28;20108;-65
2023/12/21 06:09:15;;;;;;;9.13;1.85;;;10.80;99.90;;;;;;5032353;28;20029;-43
2023/12/21 06:11:41;;;;;;;7.03;1.60;;;10.90;99.90;;;;;;5032500;28;20562;-41
2023/12/21 06:14:09;;;;;;;8.02;1.35;;;10.90;99.90;;;;;;5032214;28;20406;-41
2023/12/21 06:16:34;;;;;;;;;;;10.80;99.90;;;;;;5018701;28;20018;-40
2023/12/21 06:19:02;;;;;;;9.35;1.48;;;10.90;99.90;;;;;;5013132;28;19973;-40
2023/12/21 06:21:28;;;;;;;;;;;10.90;99.90;;;;;;5013938;28;20068;-42
2023/12/21 06:23:54;;;;;;;11.13;1.60;;;10.90;99.90;;;;;;5032353;28;20273;-42
2023/12/21 06:26:19;;;;;;;8.93;1.15;;;10.90;99.90;;;;;;5032184;28;20037;-44
2023/12/21 06:28:45;;;;;;;10.48;1.55;;;10.90;99.90;;;;;;5032270;28;20394;-43
2023/12/21 06:31:16;;;;;;;3.45;1.42;;;10.90;99.90;;;;;;5031908;28;20029;-44
2023/12/21 06:33:42;;;;;;;6.20;1.08;;;10.90;99.90;;;;;;5032302;28;20523;-54
2023/12/21 06:36:08;;;;;;;13.50;1.35;;;10.90;99.90;;;;;;5030904;28;20100;-44
2023/12/21 06:38:33;;;;;;;5.68;1.58;;;11.00;99.90;;;;;;5032653;28;20025;-46
2023/12/21 06:40:59;;;;;;;6.78;1.42;;;11.00;99.90;;;;;;5036000;28;20026;-51
2023/12/21 06:43:25;;;;;;;11.05;2.08;;;10.90;99.90;;;;;;5035652;28;20029;-55
2023/12/21 06:45:51;;;;;;;2.53;0.85;;;11.00;99.90;;;;;;5034944;28;20021;-54
2023/12/21 06:48:17;;;;;;;6.55;0.93;;;11.00;99.90;;;;;;5034188;28;20029;-54
2023/12/21 06:50:42;;;;;;;6.63;1.30;;;11.00;99.90;;;;;;5034480;28;20025;-63
2023/12/21 06:53:15;;;;;;;6.43;0.95;;;11.00;99.90;;;;;;5035464;28;20030;-54
2023/12/21 06:55:41;;;;;;;5.25;1.23;;;11.00;99.90;;;;;;5034754;28;20536;-54
2023/12/21 06:58:07;;;;;;;8.60;1.40;;;11.00;99.90;;;;;;5035672;28;20028;-55
2023/12/21 07:00:33;;;;;;;2.85;0.95;;;11.10;99.90;;;;;;5035379;28;20021;-54
2023/12/21 07:03:00;;;;;;;6.07;1.67;;;11.00;99.90;;;;;;5035429;28;20028;-51
2023/12/21 07:05:25;;;;;;;12.27;1.55;;;11.00;99.90;;;;;;5035119;28;20021;-54
2023/12/21 07:07:53;;;;;;;4.43;0.95;;;11.00;99.90;;;;;;5035240;28;20036;-55
2023/12/21 07:10:20;;;;;;;6.20;0.85;;;11.00;99.90;;;;;;5035657;28;20449;-57
2023/12/21 07:12:47;;;;;;;8.77;0.88;;;11.00;99.90;;;;;;5035229;28;20548;-55
2023/12/21 07:15:12;;;;;;;5.75;1.10;;;10.90;99.90;;;;;;5034226;28;20025;-54
2023/12/21 07:17:38;;;;;;;4.18;1.88;;;10.90;99.90;;;;;;5035011;28;20386;-53
2023/12/21 07:20:04;;;;;;;7.03;1.40;;;10.80;99.90;;;;;;5033513;28;20017;-54
2023/12/21 07:22:30;;;;;;;5.38;1.13;;;10.70;99.90;;;;;;5034846;28;20026;-55
2023/12/21 07:24:56;;;;;;;6.13;1.10;;;10.60;99.90;;;;;;5034326;28;20109;-55
2023/12/21 07:27:21;;;;;;;4.40;1.27;;;10.50;99.90;;;;;;5035173;28;20433;-55
2023/12/21 07:29:49;;;;;;;12.13;1.30;;;10.40;99.90;;;;;;5035011;28;20403;-51
2023/12/21 07:32:15;;;;;;;14.18;1.48;;;10.50;99.90;;;;;;5033402;28;20378;-52
2023/12/21 07:34:41;;;;;;;3.28;1.40;;;10.40;99.90;;;;;;5034945;28;20048;-52
2023/12/21 07:37:08;;;;;;;2.65;0.77;;;10.30;99.90;;;;;;5033169;28;20070;-59
2023/12/21 07:39:34;;;;;;;4.82;0.95;;;10.40;99.90;;;;;;5034916;28;20020;-51
2023/12/21 07:42:00;;;;;;;8.30;1.48;;;10.30;99.90;;;;;;5034311;28;20029;-54
2023/12/21 07:44:26;;;;;;;4.55;0.70;;;10.30;99.90;;;;;;5034591;28;20056;-52
2023/12/21 07:46:51;;;;;;;4.35;0.90;;;10.20;99.90;;;;;;5034248;28;20497;-54
2023/12/21 07:49:17;;;;;;;12.07;1.25;;;10.30;99.90;;;;;;5034758;28;20029;-53
2023/12/21 07:51:43;;;;;;;7.45;1.33;;;10.20;99.90;;;;;;5032059;28;20029;-53
2023/12/21 07:54:09;;;;;;;13.95;1.77;;;10.20;99.90;;;;;;5016009;28;20034;-52
2023/12/21 07:56:34;;;;;;;3.10;1.17;;;10.30;99.90;;;;;;5014848;28;20117;-54
2023/12/21 07:59:06;;;;;;;9.50;1.52;;;10.20;99.90;;;;;;5030312;28;20025;-50
2023/12/21 08:01:32;;;;;;;11.77;2.00;;;10.20;99.90;;;;;;5034227;28;20470;-51
2023/12/21 08:03:58;;;;;;;8.02;1.17;;;10.20;99.90;;;;;;5034480;28;20086;-54
2023/12/21 08:06:24;;;;;;;5.40;1.05;;;10.20;99.90;;;;;;5033862;28;20119;-55
2023/12/21 08:08:52;;;;;;;11.90;1.58;;;10.20;99.90;;;;;;5034048;28;20021;-52
2023/12/21 08:11:20;;;;;;;2.45;1.35;;;10.20;99.90;;;;;;5018052;28;20033;-53
2023/12/21 08:13:46;;;;;;;4.03;1.85;;;10.20;99.90;;;;;;5033783;28;20033;-53
2023/12/21 08:16:12;;;;;;;7.30;1.45;;;10.20;99.90;;;;;;5065951;28;20466;-54
2023/12/21 08:18:37;;;;;;;16.35;3.35;;;10.20;99.90;;;;;;5034178;28;20025;-51
2023/12/21 08:21:03;;;;;;;7.38;1.40;;;10.20;99.90;;;;;;5033984;28;20156;-48
2023/12/21 08:23:29;;;;;;;2.92;1.30;;;10.30;99.90;;;;;;5033492;28;20417;-50
2023/12/21 08:25:55;;;;;;;5.15;1.30;;;10.30;99.90;;;;;;5032753;28;20104;-51
2023/12/21 08:28:20;;;;;;;9.98;1.63;;;10.30;99.90;;;;;;5034207;28;20021;-54
2023/12/21 08:30:46;;;;;;;15.10;2.00;;;10.30;99.90;;;;;;5033641;28;20032;-53
2023/12/21 08:33:12;;;;;;;9.30;2.10;;;10.20;99.90;;;;;;5033639;28;20116;-48
2023/12/21 08:35:37;;;;;;;27.67;2.25;;;10.30;99.90;;;;;;5033681;28;20433;-52
2023/12/21 08:38:03;;;;;;;7.10;1.67;;;10.30;99.90;;;;;;5033539;28;20112;-50
2023/12/21 08:40:30;;;;;;;7.80;1.65;;;10.30;99.90;;;;;;5033037;28;20029;-50
2023/12/21 08:42:55;;;;;;;10.55;2.67;;;10.40;99.90;;;;;;5032349;28;20112;-54
2023/12/21 08:45:22;;;;;;;12.80;1.08;;;10.50;99.90;;;;;;5033701;28;20531;-53
2023/12/21 08:47:48;;;;;;;10.13;1.63;;;10.50;99.90;;;;;;5034978;28;20585;-54
2023/12/21 08:50:14;;;;;;;10.38;1.35;;;10.60;99.90;;;;;;5032988;28;20052;-50
2023/12/21 08:52:41;;;;;;;10.52;1.00;;;10.70;99.90;;;;;;5033060;28;20429;-53
2023/12/21 08:55:08;;;;;;;4.63;1.08;;;10.60;99.90;;;;;;5033461;28;20453;-53
2023/12/21 08:57:36;;;;;;;6.85;0.93;;;10.70;99.90;;;;;;5032555;28;20016;-54
2023/12/21 09:00:06;;;;;;;8.27;0.95;;;10.70;99.90;;;;;;5033551;28;20533;-50
2023/12/21 09:02:33;;;;;;;9.38;1.30;;;10.70;99.90;;;;;;5032978;28;20021;-54
2023/12/21 09:04:59;;;;;;;7.75;1.40;;;10.70;99.90;;;;;;5030998;28;20040;-53
2023/12/21 09:07:25;;;;;;;12.63;1.55;;;10.70;99.90;;;;;;5031355;28;20386;-57
2023/12/21 09:09:51;;;;;;;3.22;0.80;;;10.70;99.90;;;;;;5032457;28;20505;-55
2023/12/21 09:12:18;;;;;;;15.13;2.03;;;10.80;99.90;;;;;;5031340;28;20038;-51
2023/12/21 09:14:44;;;;;;;6.90;1.52;;;10.80;99.90;;;;;;5032762;28;20029;-53
2023/12/21 09:17:10;;;;;;;12.98;2.15;;;10.80;99.90;;;;;;5031586;28;20014;-52
2023/12/21 09:19:36;;;;;;;9.82;1.17;;;10.80;99.90;;;;;;5033103;28;20396;-57
2023/12/21 09:22:01;;;;;;;4.78;0.77;;;10.90;99.90;;;;;;5032403;28;20009;-52
2023/12/21 09:24:27;;;;;;;7.85;1.00;;;10.90;99.90;;;;;;5032296;28;20039;-54
2023/12/21 09:26:53;;;;;;;8.40;0.98;;;11.00;99.90;;;;;;5033020;28;20099;-52
2023/12/21 09:29:19;;;;;;;8.38;0.80;;;11.00;99.90;;;;;;5031691;28;20029;-52
2023/12/21 09:31:44;;;;;;;5.80;0.80;;;11.00;99.90;;;;;;5032107;28;20030;-52
2023/12/21 09:34:11;;;;;;;6.38;0.95;;;11.10;99.90;;;;;;5032288;28;20037;-52
2023/12/21 09:36:36;;;;;;;6.93;1.08;;;11.10;99.90;;;;;;5032066;28;20096;-56
2023/12/21 09:39:03;;;;;;;7.30;1.08;;;11.10;99.90;;;;;;5032480;28;20109;-50
2023/12/21 09:41:29;;;;;;;13.45;1.13;;;11.20;99.90;;;;;;5032023;28;20478;-52
2023/12/21 09:43:57;;;;;;;9.95;1.17;;;11.20;99.90;;;;;;5031548;28;20021;-51
2023/12/21 09:46:25;;;;;;;6.97;1.77;;;11.20;99.90;;;;;;5032761;28;20083;-54
2023/12/21 09:48:53;;;;;;;5.45;0.75;;;11.20;99.90;;;;;;5031539;28;20033;-50
2023/12/21 09:51:19;;;;;;;4.30;1.10;;;11.20;99.90;;;;;;5032298;28;20399;-55
2023/12/21 09:53:46;;;;;;;2.70;0.90;;;11.20;99.90;;;;;;5032440;28;20061;-46
2023/12/21 09:56:14;;;;;;;5.07;0.80;;;11.30;99.90;;;;;;5031608;28;20028;-51
2023/12/21 09:58:41;;;;;;;7.55;1.02;;;11.30;99.90;;;;;;5032666;28;20048;-54
2023/12/21 10:01:07;;;;;;;5.05;0.75;;;11.20;99.90;;;;;;5031852;28;20022;-55
2023/12/21 10:03:33;;;;;;;4.28;0.57;;;11.20;99.90;;;;;;5032881;28;20041;-55
2023/12/21 10:06:00;;;;;;;6.70;1.85;;;11.30;99.90;;;;;;5032146;28;20029;-55
2023/12/21 10:08:26;;;;;;;3.90;1.00;;;11.30;99.90;;;;;;5032524;28;20497;-55
2023/12/21 10:10:51;;;;;;;12.10;2.45;;;11.30;99.90;;;;;;5032147;28;20025;-55
2023/12/21 10:13:17;;;;;;;6.55;0.60;;;11.30;99.90;;;;;;5031490;28;20559;-52
2023/12/21 10:15:43;;;;;;;7.38;0.90;;;11.40;99.90;;;;;;5036278;28;20017;-54
2023/12/21 10:18:12;;;;;;;4.10;0.55;;;11.40;99.90;;;;;;5034850;28;20029;-53
2023/12/21 10:20:39;;;;;;;6.30;0.88;;;11.50;99.90;;;;;;5035944;28;20109;-38
2023/12/21 10:23:04;;;;;;;8.35;0.90;;;11.60;99.90;;;;;;5036282;28;20481;-39
2023/12/21 10:25:31;;;;;;;12.60;1.73;;;11.60;99.90;;;;;;5035829;28;20115;-52
2023/12/21 10:27:57;;;;;;;4.75;1.17;;;11.70;99.90;;;;;;5035775;28;20075;-53
2023/12/21 10:30:26;;;;;;;6.00;0.50;;;11.80;99.90;;;;;;5036327;28;20528;-50
2023/12/21 10:32:55;;;;;;;9.60;0.82;;;11.70;99.90;;;;;;5035617;28;20536;-54
2023/12/21 10:35:22;;;;;;;6.47;1.00;;;11.80;99.90;;;;;;5034703;28;20060;-56
2023/12/21 10:37:49;;;;;;;9.60;0.93;;;11.80;99.90;;;;;;5036146;28;20092;-51
2023/12/21 10:40:16;;;;;;;11.80;2.90;;;11.70;99.90;;;;;;5035398;28;20025;-51
2023/12/21 10:42:51;;;;;;;10.00;1.80;;;11.60;99.90;;;;;;5035111;28;20474;-58
2023/12/21 10:45:21;;;;;;;1.85;1.00;;;11.60;99.90;;;;;;5036267;28;20025;-55
2023/12/21 10:47:51;;;;;;;6.95;1.63;;;11.50;99.90;;;;;;5035609;28;20450;-65
2023/12/21 10:50:19;;;;;;;9.73;1.40;;;11.40;99.90;;;;;;5035648;28;20030;-56
2023/12/21 10:52:46;;;;;;;5.88;0.85;;;11.30;99.90;;;;;;5035637;28;20558;-53
2023/12/21 10:55:15;;;;;;;5.80;0.63;;;11.30;99.90;;;;;;5034094;28;20543;-55
2023/12/21 10:57:42;;;;;;;7.35;0.73;;;11.30;99.90;;;;;;5034468;28;20022;-54
2023/12/21 11:00:15;;;;;;;7.60;1.35;;;11.30;99.90;;;;;;5034613;28;20458;-53
2023/12/21 11:02:46;;;;;;;7.20;1.27;;;11.30;99.90;;;;;;5035169;28;20025;-53
2023/12/21 11:05:19;;;;;;;4.75;1.05;;;11.30;99.90;;;;;;5034351;28;20033;-54
2023/12/21 11:07:50;;;;;;;6.32;1.55;;;11.40;99.90;;;;;;5035669;28;20470;-56
2023/12/21 11:10:23;;;;;;;3.78;1.00;;;11.50;99.90;;;;;;5034879;28;20104;-55
2023/12/21 11:12:50;;;;;;;4.88;0.68;;;11.50;99.90;;;;;;5035251;28;20118;-55
2023/12/21 11:15:18;;;;;;;5.87;1.10;;;11.40;99.90;;;;;;5034442;28;20482;-54
2023/12/21 11:17:50;;;;;;;4.32;1.17;;;11.30;99.90;;;;;;5034027;28;20025;-53
2023/12/21 11:20:19;;;;;;;7.38;1.02;;;11.30;99.90;;;;;;5034104;28;20028;-54
2023/12/21 11:22:45;;;;;;;6.95;0.85;;;11.40;99.90;;;;;;5035349;28;20470;-49
2023/12/21 11:25:12;;;;;;;12.27;1.27;;;11.30;99.90;;;;;;5034390;28;20088;-51
2023/12/21 11:27:41;;;;;;;10.88;1.55;;;11.40;99.90;;;;;;5033519;28;20057;-53
2023/12/21 11:30:11;;;;;;;8.23;1.35;;;11.40;99.90;;;;;;5031467;28;20478;-53
2023/12/21 11:32:39;;;;;;;8.70;0.80;;;11.40;99.90;;;;;;5034150;28;20576;-52
2023/12/21 11:35:19;;;;;;;9.25;1.48;;;11.50;99.90;;;;;;5034589;28;20110;-53
2023/12/21 11:37:49;;;;;;;4.22;0.88;;;11.50;99.90;;;;;;5034735;28;20421;-52
2023/12/21 11:40:17;;;;;;;11.77;1.15;;;11.50;99.90;;;;;;5034707;28;20436;-52
2023/12/21 11:42:46;;;;;;;6.10;1.50;;;11.50;99.90;;;;;;5034210;28;20021;-52
2023/12/21 11:45:19;;;;;;;7.22;1.17;;;11.50;99.90;;;;;;5034082;28;20029;-53
2023/12/21 11:47:45;;;;;;;4.32;0.95;;;11.50;99.90;;;;;;5034673;28;20021;-53
2023/12/21 11:50:11;;;;;;;8.38;0.93;;;11.60;99.90;;;;;;5034370;28;20370;-49
2023/12/21 11:52:37;;;;;;;5.78;0.95;;;11.60;99.90;;;;;;5033977;28;20026;-49
2023/12/21 11:55:03;;;;;;;4.15;0.70;;;11.70;99.90;;;;;;5034244;28;20030;-53
2023/12/21 11:57:31;;;;;;;9.52;1.25;;;11.70;99.90;;;;;;5034088;28;20035;-55
2023/12/21 12:00:16;;;;;;;3.25;1.30;;;11.70;99.90;;;;;;5034149;28;20470;-53
2023/12/21 12:02:45;;;;;;;8.13;0.98;;;11.70;99.90;;;;;;5034032;28;20021;-54
2023/12/21 12:05:11;;;;;;;8.32;1.33;;;11.70;99.90;;;;;;5034691;28;20501;-54
2023/12/21 12:07:37;;;;;;;7.38;1.17;;;11.70;99.90;;;;;;5029880;28;20555;-51
2023/12/21 12:10:03;;;;;;;5.93;0.93;;;11.70;99.90;;;;;;5034451;28;20033;-52
2023/12/21 12:12:29;;;;;;;7.63;0.75;;;11.70;99.90;;;;;;5033391;28;20049;-51
2023/12/21 12:14:55;;;;;;;11.50;0.90;;;11.70;99.90;;;;;;5033428;28;20033;-50
2023/12/21 12:17:21;;;;;;;2.97;0.98;;;11.80;99.90;;;;;;5034000;28;20014;-52
2023/12/21 12:19:46;;;;;;;5.03;0.73;;;11.80;99.90;;;;;;5033965;28;20029;-54
2023/12/21 12:22:14;;;;;;;5.47;0.90;;;11.80;99.90;;;;;;5034124;28;20033;-51
2023/12/21 12:24:42;;;;;;;10.55;1.80;;;11.80;99.90;;;;;;5033245;28;20029;-55
2023/12/21 12:27:09;;;;;;;11.02;2.35;;;11.70;99.90;;;;;;5034295;28;20482;-53
2023/12/21 12:29:35;;;;;;;4.22;1.00;;;11.70;99.90;;;;;;5033304;28;20036;-52
2023/12/21 12:32:01;;;;;;;6.40;0.90;;;11.70;99.90;;;;;;5033565;28;20104;-73
2023/12/21 12:34:27;;;;;;;3.17;0.65;;;11.70;99.90;;;;;;5032573;28;20083;-47
2023/12/21 12:36:58;;;;;;;5.63;1.80;;;11.50;99.90;;;;;;5033609;28;20441;-52
2023/12/21 12:39:27;;;;;;;8.98;1.05;;;11.30;99.90;;;;;;5025304;28;20479;-53
2023/12/21 12:41:58;;;;;;;4.25;1.05;;;11.20;99.90;;;;;;5013971;28;20022;-53